Latest Weather Observations for Goulburn Airport

IDN60901

Issued at 6:41 am EST Saturday 24 June 2017 (issued every 10 minutes, with the page automatically refreshed every 10 minutes)

About weather observations | Map of Canberra area stations | Latest observations for Canberra area | Other Formats
Station Details ID: 070330 Name: GOULBURN AIRPORT AWS Lat: -34.81 Lon: 149.73 Height: 640.0 m
Data from the previous 72 hours. | See also: Recent months at Goulburn Airport
Date/Time
EST
Temp
°C
App
Temp
°C
Dew
Point
°C
Rel
Hum
%
Delta-T
°C
Wind Press
QNH
hPa
Press
MSL
hPa
Rain since
9am
mm
Dir  Spd
km/h
Gust
km/h
Spd
kts
Gust
kts
24/06:30am 3.3 -1.7 1.2 86 0.8 WNW 17 22 9 12 1015.6 1016.4 0.0
24/06:00am 2.4 -3.1 0.9 90 0.6 W 19 20 10 11 1015.3 1016.0 0.0
24/05:30am 3.3 -1.6 1.7 89 0.7 W 17 19 9 10 1015.3 1016.0 0.0
24/05:00am 3.5 -0.4 1.4 86 0.8 WSW 11 17 6 9 1015.0 1015.7 0.0
24/04:30am 3.5 0.5 1.9 89 0.7 WNW 7 9 4 5 1014.9 1015.6 0.0
24/04:00am 1.7 -2.4 -0.1 88 0.7 WNW 11 13 6 7 1014.4 1015.2 0.0
24/03:30am 2.7 0.5 0.8 87 0.8 SSW 2 13 1 7 1014.9 1015.6 0.0
24/03:00am 3.5 0.5 1.9 89 0.7 WNW 7 15 4 8 1014.7 1015.5 0.0
24/02:30am 3.2 1.0 1.1 86 0.8 WSW 2 7 1 4 1015.0 1015.7 0.0
24/02:00am 3.6 0.1 1.5 86 0.9 WSW 9 13 5 7 1014.9 1015.6 0.0
24/01:30am 4.5 -0.3 2.5 87 0.8 WNW 17 24 9 13 1015.1 1015.8 0.0
24/01:00am 3.9 0.5 1.8 86 0.9 WSW 9 13 5 7 1015.4 1016.2 0.0
24/12:30am 4.6 1.6 2.3 85 1.0 W 7 9 4 5 1015.6 1016.4 0.0
24/12:00am 5.4 0.6 2.6 82 1.2 WNW 17 24 9 13 1015.5 1016.3 0.0
 
Date/Time
EST
Temp
°C
App
Temp
°C
Dew
Point
°C
Rel
Hum
%
Delta-T
°C
Wind Press
QNH
hPa
Press
MSL
hPa
Rain since
9am
mm
Dir  Spd
km/h
Gust
km/h
Spd
kts
Gust
kts
23/11:30pm 5.7 1.0 3.0 83 1.2 WNW 17 24 9 13 1015.5 1016.3 0.0
23/11:00pm 5.8 1.5 3.1 83 1.2 WNW 15 20 8 11 1015.3 1016.0 0.0
23/10:30pm 5.8 1.8 2.8 81 1.3 WNW 13 19 7 10 1015.7 1016.5 0.0
23/10:00pm 5.9 2.6 2.5 79 1.4 W 9 17 5 9 1015.9 1016.7 0.0
23/09:30pm 6.8 2.1 2.9 76 1.7 W 17 24 9 13 1015.9 1016.7 0.0
23/09:00pm 6.3 3.4 2.6 77 1.6 WSW 7 15 4 8 1015.6 1016.4 0.0
23/08:30pm 5.9 3.2 2.5 79 1.4 ENE 6 9 3 5 1015.0 1015.7 0.0
23/08:00pm 7.0 3.8 2.9 75 1.8 NNW 9 15 5 8 1015.4 1016.2 0.0
23/07:30pm 7.1 2.8 3.0 75 1.8 NW 15 19 8 10 1015.4 1016.2 0.0
23/07:00pm 6.6 2.6 3.0 78 1.6 WNW 13 17 7 9 1015.6 1016.4 0.0
23/06:30pm 6.8 3.2 3.2 78 1.6 WNW 11 15 6 8 1015.2 1015.9 0.0
23/06:00pm 7.7 3.9 3.7 76 1.8 WNW 13 17 7 9 1015.2 1015.9 0.0
23/05:30pm 8.9 4.0 3.9 71 2.3 WNW 19 24 10 13 1015.2 1015.9 0.0
23/05:00pm 8.7 4.4 3.5 70 2.3 WNW 15 22 8 12 1015.4 1016.2 0.0
23/04:30pm 10.4 4.8 3.4 62 3.2 W 22 28 12 15 1015.3 1016.0 0.0
23/04:00pm 11.0 4.2 3.1 58 3.6 W 28 35 15 19 1015.4 1016.2 0.0
23/03:30pm 12.1 4.6 3.3 55 4.0 W 32 43 17 23 1015.6 1016.4 0.0
23/03:00pm 12.5 4.7 2.7 51 4.5 WNW 33 44 18 24 1015.8 1016.6 0.0
23/02:30pm 13.2 5.4 1.8 46 5.1 WNW 32 41 17 22 1015.8 1016.6 0.0
23/02:00pm 13.4 6.5 2.6 48 4.9 WNW 28 43 15 23 1016.0 1016.8 0.0
23/01:30pm 12.5 6.5 3.2 53 4.3 W 24 33 13 18 1016.6 1017.3 0.0
23/01:00pm 12.4 5.5 2.6 51 4.4 WNW 28 35 15 19 1016.8 1017.6 0.0
23/12:30pm 13.3 6.8 2.8 49 4.8 WNW 26 33 14 18 1017.2 1018.0 0.0
23/12:00pm 12.6 5.7 2.5 50 4.6 W 28 33 15 18 1017.9 1018.7 0.0
23/11:30am 12.8 6.4 3.2 52 4.4 WNW 26 35 14 19 1018.7 1019.5 0.0
23/11:00am 12.3 6.3 3.3 54 4.1 WNW 24 32 13 17 1019.2 1020.0 0.0
23/10:30am 10.9 7.0 5.4 69 2.6 WNW 15 19 8 10 1020.2 1021.0 0.0
23/10:00am 8.5 6.6 4.9 78 1.7 W 4 7 2 4 1020.6 1021.4 0.0
23/09:30am 7.3 4.8 4.8 84 1.1 NW 7 9 4 5 1020.9 1021.8 0.0
23/09:00am 6.0 3.5 4.8 92 0.5 NW 7 11 4 6 1020.7 1021.6 0.0
23/08:30am 2.1 -1.3 2.0 99 0.0 N 9 11 5 6 1020.7 1021.6 0.0
23/08:00am -0.6 -4.1 -1.0 97 0.1 N 7 9 4 5 1020.9 1021.8 0.0
23/07:30am -0.2 -4.0 -0.5 98 0.1 N 9 13 5 7 1020.8 1021.7 0.0
23/07:00am 1.3 -2.2 1.2 99 0.0 NW 9 15 5 8 1020.8 1021.7 0.0
23/06:30am -0.6 -3.5 -0.9 98 0.1 NNW 4 13 2 7 1020.5 1021.3 0.0
23/06:00am -0.9 -3.0 -1.0 99 0.0 CALM 0 0 0 0 1020.6 1021.4 0.0
23/05:30am -0.2 -3.4 -0.3 99 0.0 NNE 6 6 3 3 1020.2 1021.0 0.0
23/05:00am -0.2 -3.6 -0.3 99 0.0 NNE 7 9 4 5 1020.4 1021.2 0.0
23/04:30am -1.1 -4.6 -1.2 99 0.0 NNE 7 9 4 5 1020.9 1021.8 0.0
23/04:00am -2.6 -5.4 -2.9 98 0.0 N 2 7 1 4 1021.1 1022.0 0.0
23/03:55am -2.7 -5.1 -3.0 98 0.0 CALM 0 0 0 0 1021.0 1021.9 0.0
23/03:43am -2.7 -5.1 -3.0 98 0.0 CALM 0 4 0 2 1021.2 1022.1 0.0
23/03:36am -3.1 -6.3 -3.4 98 0.0 N 4 6 2 3 1021.1 1022.0 0.0
23/03:30am -2.9 -6.4 -3.2 98 0.0 N 6 6 3 3 1021.1 1022.0 0.0
23/03:00am -3.4 -7.2 -3.7 98 0.0 N 7 7 4 4 1021.7 1022.5 0.0
23/02:30am -3.3 -7.1 -3.6 98 0.0 N 7 9 4 5 1021.9 1022.7 0.0
23/02:17am -4.1 -7.4 -4.8 95 0.1 NW 4 9 2 5 1022.0 1022.8 0.0
23/02:15am -4.1 -7.1 -4.8 95 0.1 NW 2 7 1 4 1022.0 1022.8 0.0
23/02:13am -4.3 -7.3 -5.0 95 0.0 NW 2 7 1 4 1022.0 1022.8 0.0
23/02:07am -4.2 -6.8 -4.9 95 0.0 CALM 0 0 0 0 1022.1 1023.0 0.0
23/02:00am -3.6 -6.1 -4.1 96 0.0 CALM 0 0 0 0 1022.1 1023.0 0.0
23/01:37am -3.5 -6.0 -3.9 97 0.0 CALM 0 0 0 0 1022.2 1023.1 0.0
23/01:30am -2.9 -5.3 -3.2 98 0.0 CALM 0 0 0 0 1022.2 1023.1 0.0
23/01:20am -1.7 -4.0 -2.0 98 0.0 CALM 0 0 0 0 1022.3 1023.2 0.0
23/01:08am -1.4 -3.6 -1.7 98 0.0 CALM 0 0 0 0 1022.4 1023.3 0.0
23/01:00am -1.4 -3.6 -1.7 98 0.0 CALM 0 0 0 0 1022.4 1023.3 0.0
23/12:30am -2.3 -4.7 -2.8 96 0.1 CALM 0 0 0 0 1022.7 1023.6 0.0
23/12:20am -2.5 -4.9 -3.2 95 0.1 CALM 0 0 0 0 1022.8 1023.7 0.0
23/12:16am -2.1 -4.5 -2.9 94 0.2 CALM 0 0 0 0 1022.9 1023.8 0.0
23/12:00am -1.9 -4.7 -3.2 91 0.4 NW 2 6 1 3 1023.0 1023.9 0.0
 
Date/Time
EST
Temp
°C
App
Temp
°C
Dew
Point
°C
Rel
Hum
%
Delta-T
°C
Wind Press
QNH
hPa
Press
MSL
hPa
Rain since
9am
mm
Dir  Spd
km/h
Gust
km/h
Spd
kts
Gust
kts
22/11:30pm -0.5 -3.4 -1.1 96 0.2 NW 4 7 2 4 1023.1 1024.0 0.0
22/11:00pm -0.6 -4.0 -1.9 91 0.4 NW 6 6 3 3 1023.7 1024.6 0.0
22/10:30pm 1.6 -0.2 1.3 98 0.1 CALM 0 0 0 0 1023.9 1024.8 0.0
22/10:00pm 0.9 -1.9 -0.1 93 0.4 NW 4 7 2 4 1024.0 1024.9 0.0
22/09:30pm 2.1 0.3 1.4 95 0.3 CALM 0 0 0 0 1024.3 1025.2 0.0
22/09:00pm 1.0 -2.2 -0.8 88 0.7 SE 6 9 3 5 1024.3 1025.2 0.0
22/08:30pm 2.9 0.4 1.4 90 0.6 NW 4 7 2 4 1024.4 1025.3 0.0
22/08:00pm 2.7 0.4 0.1 83 1.0 NNW 2 7 1 4 1024.5 1025.4 0.0
22/07:30pm 5.2 3.6 2.6 83 1.1 CALM 0 0 0 0 1024.3 1025.2 0.0
22/07:00pm 5.8 4.3 3.0 82 1.2 CALM 0 0 0 0 1024.4 1025.3 0.0
22/06:30pm 6.1 3.3 2.2 76 1.7 NW 6 15 3 8 1024.3 1025.2 0.0
22/06:00pm 8.0 3.9 4.2 77 1.7 WNW 15 19 8 10 1024.3 1025.2 0.0
22/05:30pm 7.6 3.3 3.1 73 2.0 W 15 17 8 9 1024.4 1025.3 0.0
22/05:00pm 8.3 4.0 3.0 69 2.3 W 15 20 8 11 1024.4 1025.3 0.0
22/04:30pm 10.5 7.0 3.5 62 3.2 NW 11 13 6 7 1024.1 1025.0 0.0
22/04:00pm 11.7 6.5 2.7 54 4.0 NW 19 24 10 13 1024.3 1025.2 0.0
22/03:30pm 12.9 7.6 3.0 51 4.5 WNW 20 30 11 16 1024.7 1025.7 0.0
22/03:00pm 13.1 6.6 2.4 48 4.8 W 26 32 14 17 1024.9 1025.8 0.0
22/02:30pm 13.6 8.2 2.2 46 5.2 W 20 30 11 16 1024.6 1025.6 0.0
22/02:00pm 13.5 7.8 2.7 48 4.9 W 22 30 12 16 1024.6 1025.6 0.0
22/01:30pm 13.7 8.1 3.2 49 4.9 WNW 22 30 12 16 1025.1 1026.0 0.0
22/01:00pm 12.9 8.5 4.8 58 3.8 W 17 20 9 11 1025.5 1026.4 0.0
22/12:30pm 12.0 9.3 5.4 64 3.2 W 9 15 5 8 1026.1 1027.1 0.0
22/12:00pm 11.4 9.3 5.9 69 2.6 N 6 13 3 7 1026.8 1027.7 0.0
22/11:31am 10.3 8.3 6.1 75 2.0 NNE 6 11 3 6 1027.4 1028.4 0.0
22/11:30am 10.4 8.4 6.4 76 1.9 NE 6 11 3 6 1027.4 1028.4 0.0
22/11:00am 9.3 7.3 6.9 85 1.2 ENE 7 11 4 6 1027.9 1028.9 0.0
22/10:30am 7.3 5.9 7.2 99 0.0 N 4 9 2 5 1028.4 1029.3 0.0
22/10:00am 6.5 4.0 6.4 99 0.0 N 9 11 5 6 1028.7 1029.7 0.0
22/09:30am 5.9 3.8 5.8 99 0.0 N 6 9 3 5 1028.8 1029.8 0.0
22/09:27am 5.6 3.4 5.5 99 0.0 N 6 9 3 5 1028.8 1029.8 0.0
22/09:00am 4.8 3.6 4.7 99 0.0 CALM 0 0 0 0 1028.8 1029.8 0.0
22/08:30am 3.9 2.2 3.8 99 0.0 N 2 6 1 3 1028.8 1029.8 0.0
22/08:00am 3.4 0.8 3.3 99 0.0 NNW 6 7 3 4 1028.7 1029.7 0.0
22/07:30am 3.1 0.5 3.0 99 0.0 NNW 6 9 3 5 1028.5 1029.4 0.0
22/07:17am 2.9 0.6 2.8 99 0.0 N 4 7 2 4 1028.5 1029.4 0.0
22/07:13am 2.8 0.9 2.7 99 0.0 N 2 6 1 3 1028.5 1029.4 0.0
22/07:00am 2.7 0.8 2.6 99 0.0 N 2 6 1 3 1028.4 1029.3 0.0
22/06:41am 2.4 -0.6 2.3 99 0.0 NNE 7 13 4 7 1028.5 1029.4 0.0
22/06:30am 2.6 1.0 2.5 99 0.0 CALM 0 0 0 0 1028.1 1029.1 0.0
22/06:18am 2.6 1.0 2.5 99 0.0 CALM 0 0 0 0 1028.3 1029.2 0.0
22/06:00am 2.3 0.7 2.2 99 0.0 CALM 0 0 0 0 1028.0 1029.0 0.0
22/05:30am 2.1 0.4 2.0 99 0.0 CALM 0 2 0 1 1027.6 1028.6 0.0
22/05:00am 1.9 -1.1 1.8 99 0.0 N 7 9 4 5 1027.6 1028.6 0.0
22/04:30am 2.1 -0.9 2.0 99 0.0 N 7 7 4 4 1027.5 1028.5 0.0
22/04:20am 2.0 -0.8 1.9 99 0.0 N 6 9 3 5 1027.5 1028.5 0.0
22/04:00am 2.0 -0.8 1.9 99 0.0 N 6 9 3 5 1027.5 1028.5 0.0
22/03:30am 1.8 -1.1 1.7 99 0.0 N 6 9 3 5 1027.6 1028.6 0.0
22/03:04am 1.7 0.0 1.6 99 0.0 CALM 0 0 0 0 1027.6 1028.6 0.0
22/03:00am 1.8 0.1 1.7 99 0.0 CALM 0 2 0 1 1027.6 1028.6 0.0
22/02:30am 1.4 -1.5 1.3 99 0.0 N 6 7 3 4 1027.8 1028.8 0.0
22/02:00am 1.4 -0.4 1.3 99 0.0 CALM 0 0 0 0 1027.9 1028.9 0.0
22/01:30am 1.5 -0.3 1.4 99 0.0 CALM 0 0 0 0 1028.0 1029.0 0.0
22/01:00am 1.4 -0.4 1.3 99 0.0 CALM 0 0 0 0 1028.0 1029.0 0.0
22/12:30am 0.9 -1.0 0.8 99 0.0 CALM 0 0 0 0 1028.3 1029.2 0.0
22/12:00am 0.3 -2.1 0.0 98 0.1 S 2 6 1 3 1028.4 1029.3 0.0
 
Date/Time
EST
Temp
°C
App
Temp
°C
Dew
Point
°C
Rel
Hum
%
Delta-T
°C
Wind Press
QNH
hPa
Press
MSL
hPa
Rain since
9am
mm
Dir  Spd
km/h
Gust
km/h
Spd
kts
Gust
kts
21/11:52pm 0.2 -2.9 -0.1 98 0.1 S 6 7 3 4 1028.5 1029.4 0.0
21/11:30pm -0.7 -2.9 -1.3 96 0.2 CALM 0 6 0 3 1028.6 1029.5 0.0
21/11:18pm -0.9 -4.2 -1.5 96 0.2 SSW 6 7 3 4 1028.8 1029.8 0.0
21/11:17pm -0.9 -4.2 -1.3 97 0.1 SW 6 7 3 4 1028.8 1029.8 0.0
21/11:00pm 0.2 -1.8 -0.2 97 0.1 CALM 0 0 0 0 1028.7 1029.7 0.0
21/10:54pm 0.0 -2.0 -0.4 97 0.1 CALM 0 0 0 0 1028.5 1029.4 0.0
21/10:32pm 0.7 -2.0 0.4 98 0.1 WSW 4 7 2 4 1028.7 1029.7 0.0
21/10:30pm 0.9 -1.4 0.6 98 0.1 WSW 2 7 1 4 1028.7 1029.7 0.0
21/10:00pm 1.4 -2.1 1.1 98 0.1 WSW 9 9 5 5 1029.0 1030.0 0.0
21/09:30pm 1.5 -1.5 0.6 94 0.3 SSE 6 7 3 4 1028.7 1029.7 0.0
21/09:00pm 2.7 -0.2 1.5 92 0.5 SSE 6 7 3 4 1028.7 1029.7 0.0
21/08:30pm 3.6 1.5 2.0 89 0.7 NNE 2 6 1 3 1028.3 1029.2 0.0
21/08:00pm 5.5 3.5 4.2 91 0.6 E 4 7 2 4 1028.3 1029.2 0.0
21/07:30pm 5.9 4.7 4.7 92 0.5 CALM 0 6 0 3 1028.4 1029.3 0.0
21/07:00pm 5.6 3.9 4.2 91 0.6 ENE 2 6 1 3 1028.1 1029.1 0.0
21/06:30pm 5.8 4.4 3.8 87 0.9 CALM 0 0 0 0 1028.0 1029.0 0.0
21/06:00pm 6.4 4.7 3.9 84 1.1 NNE 2 7 1 4 1027.5 1028.5 0.0
21/05:30pm 7.3 5.2 3.9 79 1.5 E 4 7 2 4 1027.2 1028.1 0.0
21/05:00pm 8.8 6.2 3.2 68 2.5 E 6 7 3 4 1026.8 1027.7 0.0
21/04:30pm 11.7 9.2 4.9 63 3.2 E 7 11 4 6 1026.4 1027.4 0.0
21/04:00pm 12.7 9.1 4.9 59 3.7 ENE 13 17 7 9 1025.9 1026.8 0.0
21/03:30pm 13.3 9.3 4.7 56 4.1 E 15 20 8 11 1025.6 1026.5 0.0
21/03:00pm 13.6 9.9 4.5 54 4.3 ENE 13 17 7 9 1025.7 1026.6 0.0
21/02:30pm 13.7 10.8 4.6 54 4.4 E 9 15 5 8 1025.7 1026.6 0.0
21/02:00pm 13.4 9.8 3.2 50 4.7 ESE 11 17 6 9 1025.9 1026.8 0.0
21/01:30pm 13.3 9.9 3.9 53 4.4 ESE 11 20 6 11 1026.1 1027.1 0.0
21/01:00pm 12.9 9.3 5.1 59 3.7 ESE 13 17 7 9 1026.2 1027.2 0.0
21/12:30pm 12.6 8.4 5.5 62 3.4 E 17 28 9 15 1026.4 1027.4 0.0
21/12:00pm 12.2 8.4 5.8 65 3.1 SE 15 20 8 11 1026.9 1027.8 0.0
21/11:30am 11.3 7.6 6.4 72 2.4 SSE 15 19 8 10 1027.3 1028.3 0.0
21/11:00am 8.9 6.9 6.3 84 1.2 SSE 6 9 3 5 1027.8 1028.8 0.0
21/10:30am 7.3 5.6 5.8 90 0.7 S 4 7 2 4 1027.8 1028.8 0.0
21/10:00am 6.6 5.7 5.9 95 0.3 CALM 0 0 0 0 1027.8 1028.8 0.0
21/09:30am 4.3 2.6 4.2 99 0.0 NNE 2 6 1 3 1027.7 1028.7 0.0
21/09:23am 3.6 2.2 3.5 99 0.0 CALM 0 6 0 3 1027.6 1028.6 0.0
21/09:20am 3.3 1.8 3.2 99 0.0 CALM 0 0 0 0 1027.6 1028.6 0.0
21/09:00am 1.1 -0.7 1.0 99 0.0 CALM 0 0 0 0 1027.4 1028.4 0.2
21/08:40am -1.1 -3.3 -1.2 99 0.0 CALM 0 0 0 0 1027.3 1028.3 0.2
21/08:30am -1.2 -3.4 -1.5 98 0.1 CALM 0 0 0 0 1027.2 1028.1 0.0
21/08:09am -2.9 -5.3 -3.2 98 0.0 CALM 0 0 0 0 1027.0 1027.9 0.0
21/08:00am -3.6 -6.1 -4.0 97 0.0 CALM 0 0 0 0 1027.0 1027.9 0.0
21/07:59am -3.7 -6.2 -4.1 97 0.0 CALM 0 0 0 0 1026.9 1027.8 0.0
21/07:40am -4.9 -7.6 -5.7 94 0.1 CALM 0 0 0 0 1026.6 1027.5 0.0
21/07:39am -5.0 -7.7 -5.8 94 0.0 CALM 0 0 0 0 1026.6 1027.5 0.0
21/07:35am -5.1 -7.8 -5.9 94 0.0 CALM 0 6 0 3 1026.4 1027.4 0.0
21/07:30am -5.1 -7.8 -5.9 94 0.0 CALM 0 6 0 3 1026.3 1027.3 0.0
21/07:12am -3.8 -6.3 -4.2 97 0.0 CALM 0 0 0 0 1026.0 1027.0 0.0
21/07:03am -3.8 -6.3 -4.1 98 -0.1 CALM 0 2 0 1 1025.8 1026.7 0.0
21/07:00am -3.4 -5.9 -3.7 98 0.0 CALM 0 6 0 3 1025.8 1026.7 0.0
21/06:48am -3.5 -7.3 -3.8 98 -0.1 NNE 7 9 4 5 1025.7 1026.6 0.0

Latest Capital City Observations: Canberra | Sydney | Melbourne | Brisbane | Adelaide | Perth | Hobart | Darwin

Other Formats:

Comma delimited format used in spreadsheet applications
http://www.bom.gov.au/fwo/IDN60903/IDN60903.95716.axf

JavaScript Object Notation format (JSON) in row-major order
http://www.bom.gov.au/fwo/IDN60903/IDN60903.95716.json